Lancaster, OH (43130)

7:16 AM EDT on September 15, 2014 (GMT -0400)
KOHLANCA8 | Change Station
CLOSE
Current Station
Personal Weather Station
Location: Lancaster, OH
Elevation: 856 ft
Nearby Weather Stations

Elev 856 ft 39.72 °N, 82.57 °W | Updated 5 minutes ago

Clear
Clear
42.8 °F
Feels Like 43 °F
N
0.0
Wind Variable Wind from North
Gusts 0.0 mph

Today
High -- | Low -- °F
--% Chance of Precip.
Yesterday
High -- | Low -- °F
Precip. -- in
7:11 AM 7:39 PM
Waning Gibbous, 56% visible
Pressure 30.24 in
Visibility 1.8 miles
Clouds Clear
Windchill 43 °F
Dew Point 42 °F
Humidity 98%
Rainfall 0.00 in
Snow Depth Not available.
UV 0 out of 12
Pollen 5.40 out of 12
Ozone Good
PM2.5 Good
Flu Activity Not available.
SPECI KLHQ 151109Z AUTO 00000KT 1 3/4SM BR CLR 05/04 A3024 RMK AO2 VIS 1/2V5 T00500039 $

More Conditions Fewer Conditions

Pressure 30.24 in
Visibility 1.8 miles
Clouds Clear
Windchill 43 °F
Dew Point 42 °F
Humidity 98%
Rainfall 0.00 in
Snow Depth Not available.
UV 0 out of 12
Pollen 5.40 out of 12
Ozone Good
PM2.5 Good
Flu Activity Not available.
SPECI KLHQ 151109Z AUTO 00000KT 1 3/4SM BR CLR 05/04 A3024 RMK AO2 VIS 1/2V5 T00500039 $

More Conditions Fewer Conditions

10-Day Weather Forecast

Almanac

Astronomy

Sep. 15, 2014 Rise Set
Actual Time 7:11 AM EDT 7:39 PM EDT
Civil Twilight 6:44 AM EDT 8:06 PM EDT
Nautical Twilight 6:12 AM EDT 8:37 PM EDT
Astronomical Twilight 5:39 AM EDT 9:10 PM EDT
Moon No Moon Rise 2:09 PM EDT
Length of Visible Light 13h 21m
Length of Day
12h 27m
Tomorrow will be 2m 34s shorter.
Waning Gibbous, 56% of the Moon is Illuminated
Today
Waning Gibbous
Sep 15
Last Quarter
Sep 24
New
Oct 1
First Quarter
Oct 8
Full

Today's Extremes

State Highs State Lows

Community

WunderPhotos

Upload Photos

1,753,429 photos uploaded!

Nearby

Air Quality

  Air Quality AQ Index Pollutant
Yesterday Good
OZONE
Yesterday Good
PM2.5
Current Good
PM2.5
Current Good
OZONE
Monday Moderate
PM2.5
Monday Moderate
OZONE
Tuesday Good
PM2.5
Tuesday Good
OZONE
Wednesday Good
OZONE
Wednesday Good
PM2.5
Thursday Good
OZONE
Thursday Good
PM2.5
Friday Good
OZONE
Friday Good
PM2.5

Snow Depth

Station Depth Elevation
No new snow has been reported.

Earthquake Activity

City Distance Mag. Time & Date
No recent earthquake activity has been reported nearby.
Minimum magnitude displayed is 2.5.

Coastal Water Temperatures

Place Temperature
No Stations Reporting

Nearby Weather Stations